createdAt,value
2022-12-18T00:01:19.476Z,100
2022-12-18T00:04:22.073Z,100
2022-12-18T00:07:17.300Z,100
2022-12-18T00:11:19.241Z,100
2022-12-18T00:14:16.857Z,100
2022-12-18T00:17:16.774Z,100
2022-12-18T00:21:17.211Z,100
2022-12-18T00:24:17.212Z,100
2022-12-18T00:27:17.029Z,100
2022-12-18T00:31:19.313Z,100
2022-12-18T00:34:17.182Z,100
2022-12-18T00:37:20.267Z,100
2022-12-18T00:42:56.453Z,100
2022-12-18T00:44:18.297Z,100
2022-12-18T00:47:16.765Z,100
2022-12-18T00:51:21.711Z,100
2022-12-18T00:54:17.710Z,100
2022-12-18T00:57:17.092Z,100
2022-12-18T01:01:16.905Z,100
2022-12-18T01:04:16.858Z,100
2022-12-18T01:07:16.830Z,100
2022-12-18T01:11:18.028Z,100
2022-12-18T01:14:16.560Z,100
2022-12-18T01:17:16.334Z,100
2022-12-18T01:21:16.716Z,100
2022-12-18T01:24:16.705Z,100
2022-12-18T01:27:16.722Z,100
2022-12-18T01:31:19.726Z,100
2022-12-18T01:34:17.108Z,100
2022-12-18T01:37:17.201Z,100
2022-12-18T01:41:20.174Z,100
2022-12-18T01:51:16.985Z,100
2022-12-18T01:54:17.407Z,100
2022-12-18T01:57:17.191Z,100
2022-12-18T02:01:17.088Z,100
2022-12-18T02:04:21.978Z,100
2022-12-18T02:07:23.474Z,100
2022-12-18T02:11:22.610Z,100
2022-12-18T02:14:25.962Z,100
2022-12-18T02:17:21.144Z,100
2022-12-18T02:21:30.231Z,100
2022-12-18T02:24:28.987Z,100
2022-12-18T02:27:17.234Z,100
2022-12-18T02:31:21.312Z,100
2022-12-18T02:34:18.729Z,100
2022-12-18T02:37:19.451Z,100
2022-12-18T02:41:18.068Z,100
2022-12-18T02:44:17.402Z,100
2022-12-18T02:47:20.426Z,100
2022-12-18T02:51:23.405Z,100
2022-12-18T02:54:27.856Z,100
2022-12-18T02:57:24.305Z,100
2022-12-18T03:01:23.024Z,100
2022-12-18T03:04:20.817Z,100
2022-12-18T03:07:23.620Z,100
2022-12-18T03:11:17.002Z,100
2022-12-18T03:14:20.265Z,100
2022-12-18T03:17:20.914Z,100
2022-12-18T03:21:19.788Z,100
2022-12-18T03:24:19.702Z,100
2022-12-18T03:27:20.414Z,100
2022-12-18T03:31:18.485Z,100
2022-12-18T03:34:23.646Z,100
2022-12-18T03:37:17.129Z,100
2022-12-18T03:41:23.872Z,100
2022-12-18T03:44:27.029Z,100
2022-12-18T03:47:25.523Z,100
2022-12-18T03:51:23.454Z,100
2022-12-18T03:54:17.563Z,100
2022-12-18T03:57:19.782Z,100
2022-12-18T04:01:18.238Z,100
2022-12-18T04:04:19.110Z,100
2022-12-18T04:07:17.296Z,100
2022-12-18T04:11:16.943Z,100
2022-12-18T04:14:18.225Z,100
2022-12-18T04:17:17.649Z,100
2022-12-18T04:21:16.704Z,100
2022-12-18T04:24:17.183Z,100
2022-12-18T04:27:17.091Z,100
2022-12-18T04:31:16.600Z,100
2022-12-18T04:34:16.878Z,100
2022-12-18T04:37:16.816Z,100
2022-12-18T04:41:16.771Z,100
2022-12-18T04:44:17.394Z,100
2022-12-18T04:47:16.815Z,100
2022-12-18T04:51:16.339Z,100
2022-12-18T04:54:20.759Z,100
2022-12-18T04:57:16.957Z,100
2022-12-18T05:01:18.379Z,100
2022-12-18T05:04:17.345Z,100
2022-12-18T05:07:17.234Z,100
2022-12-18T05:11:17.275Z,100
2022-12-18T05:14:17.325Z,100
2022-12-18T05:17:17.310Z,100
2022-12-18T05:21:16.232Z,100
2022-12-18T05:24:16.485Z,100
2022-12-18T05:27:16.684Z,100
2022-12-18T05:31:15.971Z,100
2022-12-18T05:34:16.459Z,100
2022-12-18T05:37:16.401Z,100
2022-12-18T05:41:16.410Z,100
2022-12-18T05:44:16.734Z,100
2022-12-18T05:47:16.984Z,100
2022-12-18T05:51:18.070Z,100
2022-12-18T05:54:16.653Z,100
2022-12-18T05:57:16.736Z,100
2022-12-18T06:01:19.277Z,100
2022-12-18T06:04:16.891Z,100
2022-12-18T06:07:16.658Z,100
2022-12-18T06:11:18.981Z,100
2022-12-18T06:14:18.567Z,100
2022-12-18T06:17:16.398Z,100
2022-12-18T06:21:16.163Z,100
2022-12-18T06:24:16.740Z,100
2022-12-18T06:27:16.557Z,100
2022-12-18T06:31:16.794Z,100
2022-12-18T06:34:16.847Z,100
2022-12-18T06:37:16.730Z,100
2022-12-18T06:41:19.057Z,100
2022-12-18T06:44:16.961Z,100
2022-12-18T06:47:16.747Z,100
2022-12-18T06:51:18.268Z,100
2022-12-18T06:54:16.756Z,100
2022-12-18T06:57:16.716Z,100
2022-12-18T07:01:16.270Z,100
2022-12-18T07:04:16.616Z,100
2022-12-18T07:07:16.473Z,100
2022-12-18T07:11:17.421Z,100
2022-12-18T07:14:16.538Z,100
2022-12-18T07:17:16.724Z,100
2022-12-18T07:21:18.844Z,100
2022-12-18T07:24:16.399Z,100
2022-12-18T07:27:16.211Z,100
2022-12-18T07:31:20.305Z,100
2022-12-18T07:34:17.428Z,100
2022-12-18T07:37:17.189Z,100
2022-12-18T07:41:16.819Z,100
2022-12-18T07:44:16.377Z,100
2022-12-18T07:47:16.312Z,100
2022-12-18T07:51:17.568Z,100
2022-12-18T07:54:16.877Z,100
2022-12-18T07:57:41.792Z,100
2022-12-18T08:01:16.270Z,100
2022-12-18T08:04:16.942Z,100
2022-12-18T08:07:16.630Z,100
2022-12-18T08:11:16.443Z,100
2022-12-18T08:14:16.886Z,100
2022-12-18T08:17:16.717Z,100
2022-12-18T08:21:18.652Z,100
2022-12-18T08:24:17.156Z,100
2022-12-18T08:27:30.314Z,100
2022-12-18T08:31:17.306Z,100
2022-12-18T08:34:17.056Z,100
2022-12-18T08:37:16.977Z,100
2022-12-18T08:41:17.205Z,100
2022-12-18T08:44:48.412Z,100
2022-12-18T08:47:16.377Z,100
2022-12-18T08:51:16.964Z,100
2022-12-18T08:54:16.959Z,100
2022-12-18T08:57:17.297Z,100
2022-12-18T09:01:16.564Z,100
2022-12-18T09:04:17.094Z,100
2022-12-18T09:07:17.003Z,100
2022-12-18T09:11:21.594Z,100
2022-12-18T09:14:17.076Z,100
2022-12-18T09:17:17.450Z,100
2022-12-18T09:21:18.819Z,100
2022-12-18T09:24:17.033Z,100
2022-12-18T09:27:16.965Z,100
2022-12-18T09:31:19.500Z,100
2022-12-18T09:34:16.543Z,100
2022-12-18T09:37:16.227Z,100
2022-12-18T09:41:44.209Z,100
2022-12-18T09:44:23.432Z,100
2022-12-18T09:47:22.178Z,100
2022-12-18T09:51:19.931Z,100
2022-12-18T09:54:22.302Z,100
2022-12-18T09:57:20.839Z,100
2022-12-18T10:01:22.562Z,100
2022-12-18T10:04:17.264Z,100
2022-12-18T10:07:25.022Z,100
2022-12-18T10:11:29.177Z,100
2022-12-18T10:14:23.702Z,100
2022-12-18T10:17:35.673Z,100
2022-12-18T10:21:21.858Z,100
2022-12-18T10:24:26.939Z,100
2022-12-18T10:27:21.652Z,100
2022-12-18T10:31:19.435Z,100
2022-12-18T10:34:17.004Z,100
2022-12-18T10:37:18.876Z,100
2022-12-18T10:41:26.714Z,100
2022-12-18T10:44:19.897Z,100
2022-12-18T10:47:19.208Z,98.661385337726
2022-12-18T10:51:23.347Z,97.63385111491088
2022-12-18T10:54:18.860Z,97.22845790275917
2022-12-18T10:57:29.471Z,95.94179469212355
2022-12-18T11:01:18.450Z,95.48959264957075
2022-12-18T11:04:21.285Z,94.85905661305561
2022-12-18T11:07:17.075Z,91.65263490976683
2022-12-18T11:11:21.222Z,89.37335812952529
2022-12-18T11:14:21.799Z,90.37252025769426
2022-12-18T11:17:25.758Z,89.57603231805868
2022-12-18T11:21:16.731Z,88.34710371311449
2022-12-18T11:24:23.180Z,85.0205861170856
2022-12-18T11:27:18.797Z,85.2338666765553
2022-12-18T11:31:24.493Z,85.029569321698
2022-12-18T11:34:30.023Z,84.97004918900636
2022-12-18T11:37:20.760Z,83.45715596700437
2022-12-18T11:41:25.664Z,84.00531020744069
2022-12-18T11:44:26.594Z,82.50405742140839
2022-12-18T11:47:25.340Z,81.68765107948497
2022-12-18T11:51:28.463Z,78.44440841932793
2022-12-18T11:54:17.531Z,78.05191391374042
2022-12-18T11:57:32.230Z,77.63510397038542
2022-12-18T12:01:29.949Z,77.41198008132888
2022-12-18T12:04:50.435Z,77.87851246614169
2022-12-18T12:07:26.148Z,77.14819955503867
2022-12-18T12:11:28.641Z,75.33143253405741
2022-12-18T12:14:29.877Z,74.3472080642293
2022-12-18T12:17:27.976Z,75.17935431669912
2022-12-18T12:21:25.861Z,73.75111764984266
2022-12-18T12:24:33.595Z,72.80014994663519
2022-12-18T12:27:28.587Z,71.7483084657008
2022-12-18T12:31:32.199Z,69.70568617427045
2022-12-18T12:34:20.368Z,69.15754489740074
2022-12-18T12:37:44.251Z,70.82569046949408
2022-12-18T12:43:25.916Z,69.09764672796133
2022-12-18T12:44:22.356Z,68.06839031284696
2022-12-18T12:47:23.063Z,69.94615437471742
2022-12-18T12:51:19.825Z,68.2134439817436
2022-12-18T12:54:21.512Z,67.37973554039378
2022-12-18T12:57:21.755Z,67.48621326598479
2022-12-18T13:01:26.875Z,68.14807131969214
2022-12-18T13:04:27.506Z,67.46020160901895
2022-12-18T13:07:24.672Z,66.41254412413043
2022-12-18T13:21:23.311Z,65.39892721993688
2022-12-18T13:24:25.768Z,66.67123082903326
2022-12-18T13:28:23.172Z,68.26941367184297
2022-12-18T13:31:59.292Z,68.0590767296678
2022-12-18T13:34:27.475Z,66.51712709244333
2022-12-18T13:37:52.839Z,65.33777737692134
2022-12-18T13:41:26.656Z,63.79572056158946
2022-12-18T13:44:28.933Z,65.69589725026016
2022-12-18T13:47:28.185Z,67.08473773247614
2022-12-18T13:51:18.950Z,66.69947583244169
2022-12-18T13:54:24.315Z,66.11106930662059
2022-12-18T13:57:27.700Z,65.07137394777126
2022-12-18T14:01:23.496Z,65.7614924501099
2022-12-18T14:04:21.355Z,64.82885481766134
2022-12-18T14:07:19.575Z,65.101116930185
2022-12-18T14:11:22.355Z,63.043956179381865
2022-12-18T14:14:18.060Z,63.30763987303147
2022-12-18T14:17:23.055Z,63.33364674208915
2022-12-18T14:21:21.365Z,63.634753089498275
2022-12-18T14:24:20.700Z,63.25768316882041
2022-12-18T14:27:24.098Z,63.21527533424355
2022-12-18T14:31:20.949Z,63.33141612057252
2022-12-18T14:34:17.314Z,62.74914905860289
2022-12-18T14:37:20.231Z,61.78955313244611
2022-12-18T14:41:18.823Z,61.21193482550568
2022-12-18T14:44:16.865Z,60.75497106339917
2022-12-18T14:47:17.857Z,61.43219549219542
2022-12-18T14:51:21.267Z,59.90898066417613
2022-12-18T14:54:18.448Z,59.81675548825218
2022-12-18T14:57:22.383Z,58.98751566690603
2022-12-18T15:01:20.958Z,58.495850727503786
2022-12-18T15:04:27.226Z,58.64816965939716
2022-12-18T15:07:20.333Z,58.57421878207097
2022-12-18T15:11:48.504Z,58.843777183310465
2022-12-18T15:14:31.896Z,59.94558398341735
2022-12-18T15:17:19.844Z,61.11978460289157
2022-12-18T15:21:19.620Z,62.490520506194294
2022-12-18T15:24:23.365Z,62.5883687989573
2022-12-18T15:27:28.605Z,63.134456121965265
2022-12-18T15:31:24.654Z,63.34958270514622
2022-12-18T15:34:21.194Z,63.910337806392
2022-12-18T15:37:17.267Z,64.9499862457598
2022-12-18T15:41:22.861Z,66.37599952901327
2022-12-18T15:44:23.814Z,67.33586528190014
2022-12-18T15:47:17.116Z,68.25071967497674
2022-12-18T15:51:18.765Z,68.68019366298559
2022-12-18T15:54:17.328Z,69.20893930176244
2022-12-18T15:57:24.405Z,69.99789418877324
2022-12-18T16:01:17.329Z,71.57839702967057
2022-12-18T16:04:19.508Z,71.58044261993169
2022-12-18T16:07:19.475Z,71.90228995866366
2022-12-18T16:11:23.243Z,73.01385358621702
2022-12-18T16:14:18.728Z,73.20591153722206
2022-12-18T16:17:17.101Z,73.48736999526102
2022-12-18T16:21:16.281Z,73.94898764305306
2022-12-18T16:24:19.876Z,74.1297651412105
2022-12-18T16:27:16.829Z,74.91306001438596
2022-12-18T16:31:16.991Z,74.82687013995574
2022-12-18T16:34:21.044Z,74.99559318009901
2022-12-18T16:37:17.343Z,74.36015047161858
2022-12-18T16:41:48.753Z,74.87153314922337
2022-12-18T16:44:17.500Z,75.99573034028955
2022-12-18T16:47:17.326Z,76.0539450081265
2022-12-18T16:51:16.790Z,76.1940268410823
2022-12-18T16:54:19.034Z,76.65093973856908
2022-12-18T16:57:19.741Z,76.93439029146423
2022-12-18T17:01:16.517Z,77.3328432301207
2022-12-18T17:04:17.828Z,77.21635119864558
2022-12-18T17:07:16.386Z,77.8436300754836
2022-12-18T17:11:16.400Z,78.37988417208786
2022-12-18T17:14:18.871Z,78.84720815260702
2022-12-18T17:17:22.237Z,79.14832036173556
2022-12-18T17:21:16.489Z,78.7301928989526
2022-12-18T17:24:19.627Z,79.68079338278379
2022-12-18T17:27:16.565Z,79.7272813461166
2022-12-18T17:31:18.706Z,80.52850648913305
2022-12-18T17:34:17.154Z,81.0002246483947
2022-12-18T17:37:17.193Z,81.32445458339001
2022-12-18T17:41:16.347Z,80.45742366506283
2022-12-18T17:44:17.647Z,80.75649848576182
2022-12-18T17:47:16.649Z,81.04567675744593
2022-12-18T17:51:16.986Z,81.63512898989192
2022-12-18T17:54:16.731Z,82.10393593571698
2022-12-18T17:57:16.685Z,82.94208820643519
2022-12-18T18:01:20.074Z,83.26725744997763
2022-12-18T18:04:16.859Z,83.37932295338531
2022-12-18T18:07:17.767Z,83.70258785521969
2022-12-18T18:21:16.795Z,85.35394434604473
2022-12-18T18:24:21.477Z,85.64323631557217
2022-12-18T18:27:18.585Z,86.04985591233529
2022-12-18T18:31:16.488Z,86.38409085969992
2022-12-18T18:34:20.310Z,87.08813272311794
2022-12-18T18:37:17.287Z,87.89003738512592
2022-12-18T18:41:16.780Z,88.37990425727337
2022-12-18T18:44:19.353Z,88.74512436525372
2022-12-18T18:47:17.138Z,88.62927246768021
2022-12-18T18:51:21.464Z,88.68562146763824
2022-12-18T18:54:16.634Z,88.54354245253472
2022-12-18T18:57:20.774Z,88.94178911385731
2022-12-18T19:01:19.627Z,89.07381335077744
2022-12-18T19:04:17.101Z,89.27279388857863
2022-12-18T19:07:18.528Z,89.38630607916811
2022-12-18T19:21:17.273Z,89.1943218726698
2022-12-18T19:24:17.390Z,89.2355220491875
2022-12-18T19:27:17.391Z,89.23082507923128
2022-12-18T19:31:22.840Z,89.74286195033407
2022-12-18T19:34:16.675Z,89.90287896922997
2022-12-18T19:37:16.899Z,89.98073176456064
2022-12-18T19:41:17.921Z,89.75150325474495
2022-12-18T19:44:18.985Z,90.30857364137357
2022-12-18T19:47:16.579Z,90.41918753311622
2022-12-18T19:51:18.137Z,90.72212370543997
2022-12-18T19:54:17.666Z,90.52869445344858
2022-12-18T19:57:16.446Z,90.94574838684635
2022-12-18T20:01:19.033Z,91.47495050679169
2022-12-18T20:04:17.570Z,91.68183182605915
2022-12-18T20:07:16.858Z,91.60626646322802
2022-12-18T20:11:17.198Z,91.22480653036504
2022-12-18T20:14:20.647Z,91.6164099724712
2022-12-18T20:17:17.238Z,91.42760792648204
2022-12-18T20:21:16.656Z,92.0781863085478
2022-12-18T20:24:16.991Z,92.28274728149852
2022-12-18T20:27:19.493Z,92.35847704376239
2022-12-18T20:31:18.564Z,92.25711886813518
2022-12-18T20:34:19.150Z,92.21278350677929
2022-12-18T20:37:17.326Z,92.45060269932735
2022-12-18T20:41:22.066Z,92.40351852685419
2022-12-18T20:44:22.004Z,92.72463398356548
2022-12-18T20:47:16.935Z,93.03377425826521
2022-12-18T20:51:20.733Z,93.9434707104139
2022-12-18T20:54:22.330Z,94.27545966638154
2022-12-18T20:57:17.737Z,94.4657106950259
2022-12-18T21:01:19.704Z,95.00306714466937
2022-12-18T21:04:20.053Z,95.73213301244378
2022-12-18T21:07:20.326Z,95.77839703638735
2022-12-18T21:12:34.956Z,96.15785385564045
2022-12-18T21:14:18.924Z,96.06064515367085
2022-12-18T21:17:16.788Z,95.89217420018171
2022-12-18T21:21:16.375Z,94.81954130546137
2022-12-18T21:24:17.395Z,94.4529490048376
2022-12-18T21:27:17.703Z,94.11287699666505
2022-12-18T21:31:17.828Z,93.64085554232071
2022-12-18T21:34:19.354Z,93.62433706031571
2022-12-18T21:37:17.861Z,93.57882265530803
2022-12-18T21:44:06.496Z,93.84602176333249
2022-12-18T21:44:17.824Z,94.41956468476387
2022-12-18T21:47:22.444Z,94.70840112921589
2022-12-18T21:51:16.374Z,94.56379822158074
2022-12-18T21:54:18.058Z,94.63517282704855
2022-12-18T21:57:18.829Z,94.54240253216896
2022-12-18T22:01:17.167Z,94.97786968043864
2022-12-18T22:04:17.429Z,95.54227954045325
2022-12-18T22:07:16.417Z,95.54397713076031
2022-12-18T22:11:16.104Z,95.27484385332306
2022-12-18T22:14:20.360Z,95.51807035912717
2022-12-18T22:17:16.446Z,95.38698432103693
2022-12-18T22:21:28.647Z,95.22712731117461
2022-12-18T22:24:18.670Z,95.21583271492858
2022-12-18T22:27:16.491Z,95.24003300456296
2022-12-18T22:31:16.519Z,95.37239544059913
2022-12-18T22:34:21.899Z,96.12504668890763
2022-12-18T22:37:16.762Z,95.62280973128287
2022-12-18T22:41:18.083Z,95.32092096086947
2022-12-18T22:44:18.149Z,95.32940096793465
2022-12-18T22:47:16.462Z,96.48315862460383
2022-12-18T22:51:17.812Z,96.88658987018933
2022-12-18T22:54:16.187Z,96.7243055793872
2022-12-18T22:57:16.411Z,96.85628627757787
2022-12-18T23:01:19.688Z,96.78410657470542
2022-12-18T23:04:16.797Z,96.75746028450364
2022-12-18T23:07:16.974Z,97.54682826146941
2022-12-18T23:11:18.281Z,97.26690671274505
2022-12-18T23:14:16.795Z,97.45000842026937
2022-12-18T23:17:17.338Z,97.7957628897033
2022-12-18T23:21:18.684Z,98.19466648286986
2022-12-18T23:24:16.919Z,98.19032271548012
2022-12-18T23:27:16.698Z,98.12330569338417
2022-12-18T23:31:18.497Z,98.17422573694344
2022-12-18T23:34:18.070Z,98.44250979294804
2022-12-18T23:37:29.957Z,98.35897241281563
2022-12-18T23:41:17.392Z,99.01040616598802
2022-12-18T23:44:16.211Z,99.04662581275292
2022-12-18T23:47:16.088Z,99.01791649997011
2022-12-18T23:51:18.950Z,98.77594175955187
2022-12-18T23:54:16.579Z,98.75809105565781
2022-12-18T23:57:17.347Z,98.92523730232266
